sensor_id;sensor_type;location;lat;lon;timestamp;pressure;altitude;pressure_sealevel;temperature;humidity
43119;BME280;28729;49.838;8.650;2022-12-29T00:01:33;99090.84;;;11.78;77.75
43119;BME280;28729;49.838;8.650;2022-12-29T00:05:34;99089.47;;;11.76;77.60
43119;BME280;28729;49.838;8.650;2022-12-29T00:09:36;99093.06;;;11.81;77.93
43119;BME280;28729;49.838;8.650;2022-12-29T00:13:39;99088.06;;;11.83;78.07
43119;BME280;28729;49.838;8.650;2022-12-29T00:17:59;99100.78;;;11.79;78.51
43119;BME280;28729;49.838;8.650;2022-12-29T00:22:00;99103.00;;;11.67;79.81
43119;BME280;28729;49.838;8.650;2022-12-29T00:26:21;99093.59;;;11.68;80.78
43119;BME280;28729;49.838;8.650;2022-12-29T00:30:42;99093.03;;;11.56;82.85
43119;BME280;28729;49.838;8.650;2022-12-29T00:35:03;99106.00;;;11.55;83.49
43119;BME280;28729;49.838;8.650;2022-12-29T00:39:16;99105.72;;;11.52;84.17
43119;BME280;28729;49.838;8.650;2022-12-29T00:43:38;99096.06;;;11.49;86.94
43119;BME280;28729;49.838;8.650;2022-12-29T00:48:27;99092.44;;;11.38;89.19
43119;BME280;28729;49.838;8.650;2022-12-29T00:53:03;99090.22;;;11.25;90.67
43119;BME280;28729;49.838;8.650;2022-12-29T00:57:08;99092.69;;;11.27;90.43
43119;BME280;28729;49.838;8.650;2022-12-29T01:01:11;99092.97;;;11.25;90.34
43119;BME280;28729;49.838;8.650;2022-12-29T01:05:13;99089.66;;;11.23;90.91
43119;BME280;28729;49.838;8.650;2022-12-29T01:09:15;99089.09;;;11.26;92.43
43119;BME280;28729;49.838;8.650;2022-12-29T01:13:36;99089.69;;;11.28;93.85
43119;BME280;28729;49.838;8.650;2022-12-29T01:17:39;99082.50;;;11.22;96.31
43119;BME280;28729;49.838;8.650;2022-12-29T01:21:41;99087.97;;;11.12;98.53
43119;BME280;28729;49.838;8.650;2022-12-29T01:25:43;99077.75;;;11.02;100.00
43119;BME280;28729;49.838;8.650;2022-12-29T01:29:44;99085.47;;;11.05;100.00
43119;BME280;28729;49.838;8.650;2022-12-29T01:33:46;99073.63;;;11.10;100.00
43119;BME280;28729;49.838;8.650;2022-12-29T01:37:47;99066.47;;;11.24;100.00
43119;BME280;28729;49.838;8.650;2022-12-29T01:41:49;99061.00;;;11.34;100.00
43119;BME280;28729;49.838;8.650;2022-12-29T01:45:52;99061.56;;;11.47;100.00
43119;BME280;28729;49.838;8.650;2022-12-29T01:49:58;99053.28;;;11.57;100.00
43119;BME280;28729;49.838;8.650;2022-12-29T01:54:02;99053.31;;;11.67;100.00
43119;BME280;28729;49.838;8.650;2022-12-29T01:58:06;99053.28;;;11.77;100.00
43119;BME280;28729;49.838;8.650;2022-12-29T02:02:08;99065.47;;;11.81;100.00
43119;BME280;28729;49.838;8.650;2022-12-29T02:06:33;99047.81;;;11.98;100.00
43119;BME280;28729;49.838;8.650;2022-12-29T02:10:37;99044.22;;;12.02;100.00
43119;BME280;28729;49.838;8.650;2022-12-29T02:14:40;99054.72;;;12.05;100.00
43119;BME280;28729;49.838;8.650;2022-12-29T02:23:11;99040.59;;;12.07;100.00
43119;BME280;28729;49.838;8.650;2022-12-29T02:35:44;99044.19;;;12.07;100.00
43119;BME280;28729;49.838;8.650;2022-12-29T02:39:59;99034.56;;;12.05;100.00
43119;BME280;28729;49.838;8.650;2022-12-29T02:44:18;99018.00;;;12.00;100.00
43119;BME280;28729;49.838;8.650;2022-12-29T02:48:55;99020.75;;;11.84;100.00
43119;BME280;28729;49.838;8.650;2022-12-29T02:53:07;99023.75;;;11.83;100.00
43119;BME280;28729;49.838;8.650;2022-12-29T03:14:06;99004.19;;;11.95;100.00
43119;BME280;28729;49.838;8.650;2022-12-29T03:23:08;98990.69;;;11.93;100.00
43119;BME280;28729;49.838;8.650;2022-12-29T03:27:15;98999.78;;;11.99;100.00
43119;BME280;28729;49.838;8.650;2022-12-29T03:31:19;99003.63;;;11.98;100.00
43119;BME280;28729;49.838;8.650;2022-12-29T03:35:26;98992.31;;;11.94;100.00
43119;BME280;28729;49.838;8.650;2022-12-29T03:39:30;98982.09;;;11.84;100.00
43119;BME280;28729;49.838;8.650;2022-12-29T03:43:34;98990.38;;;11.84;100.00
43119;BME280;28729;49.838;8.650;2022-12-29T03:47:36;98976.56;;;11.79;100.00
43119;BME280;28729;49.838;8.650;2022-12-29T03:51:38;98979.34;;;11.79;100.00
43119;BME280;28729;49.838;8.650;2022-12-29T03:55:39;98973.00;;;11.79;100.00
43119;BME280;28729;49.838;8.650;2022-12-29T03:59:42;98965.28;;;11.86;100.00
43119;BME280;28729;49.838;8.650;2022-12-29T04:03:44;98968.03;;;11.86;100.00
43119;BME280;28729;49.838;8.650;2022-12-29T04:07:46;98973.81;;;11.95;100.00
43119;BME280;28729;49.838;8.650;2022-12-29T04:11:48;98969.13;;;12.00;100.00
43119;BME280;28729;49.838;8.650;2022-12-29T04:15:51;98967.47;;;11.89;100.00
43119;BME280;28729;49.838;8.650;2022-12-29T04:19:52;98962.50;;;11.96;100.00
43119;BME280;28729;49.838;8.650;2022-12-29T04:24:14;98953.66;;;11.99;99.67
43119;BME280;28729;49.838;8.650;2022-12-29T04:28:16;98969.66;;;11.97;99.63
43119;BME280;28729;49.838;8.650;2022-12-29T04:32:31;98958.38;;;11.99;99.49
43119;BME280;28729;49.838;8.650;2022-12-29T04:36:33;98960.28;;;11.98;99.31
43119;BME280;28729;49.838;8.650;2022-12-29T04:40:35;98949.78;;;12.05;98.34
43119;BME280;28729;49.838;8.650;2022-12-29T04:44:39;98947.84;;;12.06;97.82
43119;BME280;28729;49.838;8.650;2022-12-29T04:48:51;98961.66;;;12.06;97.60
43119;BME280;28729;49.838;8.650;2022-12-29T04:53:19;98947.84;;;12.11;96.92
43119;BME280;28729;49.838;8.650;2022-12-29T04:57:21;98959.97;;;12.15;96.22
43119;BME280;28729;49.838;8.650;2022-12-29T05:01:27;98948.09;;;12.15;95.57
43119;BME280;28729;49.838;8.650;2022-12-29T05:05:29;98951.09;;;12.18;95.20
43119;BME280;28729;49.838;8.650;2022-12-29T05:09:32;98956.63;;;12.23;95.03
43119;BME280;28729;49.838;8.650;2022-12-29T05:13:34;98965.16;;;12.27;94.29
43119;BME280;28729;49.838;8.650;2022-12-29T05:17:37;98963.22;;;12.27;94.18
43119;BME280;28729;49.838;8.650;2022-12-29T05:21:40;98969.56;;;12.33;94.20
43119;BME280;28729;49.838;8.650;2022-12-29T05:25:43;98979.81;;;12.27;94.21
43119;BME280;28729;49.838;8.650;2022-12-29T05:30:04;98973.72;;;12.30;93.97
43119;BME280;28729;49.838;8.650;2022-12-29T05:34:10;98979.81;;;12.27;93.61
43119;BME280;28729;49.838;8.650;2022-12-29T05:38:13;98974.28;;;12.27;93.53
43119;BME280;28729;49.838;8.650;2022-12-29T05:42:16;98978.69;;;12.34;92.92
43119;BME280;28729;49.838;8.650;2022-12-29T05:46:38;98966.53;;;12.35;92.81
43119;BME280;28729;49.838;8.650;2022-12-29T05:51:04;98968.75;;;12.27;92.45
43119;BME280;28729;49.838;8.650;2022-12-29T05:55:14;98959.66;;;12.27;92.46
43119;BME280;28729;49.838;8.650;2022-12-29T05:59:19;98955.25;;;12.26;92.03
43119;BME280;28729;49.838;8.650;2022-12-29T06:03:22;98945.56;;;12.28;92.13
43119;BME280;28729;49.838;8.650;2022-12-29T06:07:25;98945.56;;;12.28;91.62
43119;BME280;28729;49.838;8.650;2022-12-29T06:11:27;98947.22;;;12.29;91.45
43119;BME280;28729;49.838;8.650;2022-12-29T06:15:32;98955.75;;;12.33;90.97
43119;BME280;28729;49.838;8.650;2022-12-29T06:19:34;98951.59;;;12.36;90.83
43119;BME280;28729;49.838;8.650;2022-12-29T06:23:36;98951.06;;;12.34;91.19
43119;BME280;28729;49.838;8.650;2022-12-29T06:27:38;98956.31;;;12.25;91.58
43119;BME280;28729;49.838;8.650;2022-12-29T06:31:39;98958.53;;;12.28;91.40
43119;BME280;28729;49.838;8.650;2022-12-29T06:35:42;98959.91;;;12.25;91.69
43119;BME280;28729;49.838;8.650;2022-12-29T06:39:44;98963.25;;;12.22;91.92
43119;BME280;28729;49.838;8.650;2022-12-29T06:43:48;98959.38;;;12.23;91.90
43119;BME280;28729;49.838;8.650;2022-12-29T06:47:56;98965.72;;;12.24;91.93
43119;BME280;28729;49.838;8.650;2022-12-29T06:51:57;98946.16;;;12.20;91.66
43119;BME280;28729;49.838;8.650;2022-12-29T06:56:01;98960.25;;;12.14;92.26
43119;BME280;28729;49.838;8.650;2022-12-29T07:00:04;98951.97;;;12.14;92.22
43119;BME280;28729;49.838;8.650;2022-12-29T07:04:07;98946.16;;;12.15;92.16
43119;BME280;28729;49.838;8.650;2022-12-29T07:08:09;98943.09;;;12.22;91.42
43119;BME280;28729;49.838;8.650;2022-12-29T07:12:11;98939.50;;;12.26;90.57
43119;BME280;28729;49.838;8.650;2022-12-29T07:16:26;98944.13;;;12.36;90.45
43119;BME280;28729;49.838;8.650;2022-12-29T07:20:28;98949.41;;;12.38;90.34
43119;BME280;28729;49.838;8.650;2022-12-29T07:24:29;98954.63;;;12.34;92.63
43119;BME280;28729;49.838;8.650;2022-12-29T07:28:32;98961.03;;;12.24;93.61
43119;BME280;28729;49.838;8.650;2022-12-29T07:32:34;98963.78;;;12.24;93.70
43119;BME280;28729;49.838;8.650;2022-12-29T07:36:36;98962.16;;;12.13;94.94
43119;BME280;28729;49.838;8.650;2022-12-29T07:40:38;98971.25;;;12.19;94.37
43119;BME280;28729;49.838;8.650;2022-12-29T07:44:39;98979.84;;;12.17;94.37
43119;BME280;28729;49.838;8.650;2022-12-29T07:48:58;98973.50;;;12.12;93.77
43119;BME280;28729;49.838;8.650;2022-12-29T07:53:00;98980.66;;;12.18;92.67
43119;BME280;28729;49.838;8.650;2022-12-29T07:57:02;98982.03;;;12.20;92.08
43119;BME280;28729;49.838;8.650;2022-12-29T08:01:04;98993.66;;;12.12;91.10
43119;BME280;28729;49.838;8.650;2022-12-29T08:05:07;98991.97;;;12.21;89.88
43119;BME280;28729;49.838;8.650;2022-12-29T08:09:08;98999.13;;;12.27;89.34
43119;BME280;28729;49.838;8.650;2022-12-29T08:13:18;98996.38;;;12.27;88.59
43119;BME280;28729;49.838;8.650;2022-12-29T08:17:20;99004.97;;;12.26;87.74
43119;BME280;28729;49.838;8.650;2022-12-29T08:21:23;99002.16;;;12.31;87.68
43119;BME280;28729;49.838;8.650;2022-12-29T08:25:27;99001.59;;;12.39;87.00
43119;BME280;28729;49.838;8.650;2022-12-29T08:29:29;98997.44;;;12.42;87.01
43119;BME280;28729;49.838;8.650;2022-12-29T08:33:31;99000.75;;;12.44;86.55
43119;BME280;28729;49.838;8.650;2022-12-29T08:37:33;99012.34;;;12.46;86.02
43119;BME280;28729;49.838;8.650;2022-12-29T08:41:35;99011.50;;;12.50;85.77
43119;BME280;28729;49.838;8.650;2022-12-29T08:45:37;98996.88;;;12.50;85.65
43119;BME280;28729;49.838;8.650;2022-12-29T08:49:38;99007.59;;;12.62;85.29
43119;BME280;28729;49.838;8.650;2022-12-29T08:53:40;99001.50;;;12.65;84.42
43119;BME280;28729;49.838;8.650;2022-12-29T08:57:42;99008.41;;;12.67;84.25
43119;BME280;28729;49.838;8.650;2022-12-29T09:01:53;99008.94;;;12.69;83.53
43119;BME280;28729;49.838;8.650;2022-12-29T09:05:55;99005.91;;;12.71;84.08
43119;BME280;28729;49.838;8.650;2022-12-29T09:09:57;99013.88;;;12.72;83.96
43119;BME280;28729;49.838;8.650;2022-12-29T09:13:58;99022.72;;;12.74;84.04
43119;BME280;28729;49.838;8.650;2022-12-29T09:18:00;99021.66;;;12.70;83.88
43119;BME280;28729;49.838;8.650;2022-12-29T09:22:02;99024.13;;;12.72;83.88
43119;BME280;28729;49.838;8.650;2022-12-29T09:26:04;99018.03;;;12.70;83.44
43119;BME280;28729;49.838;8.650;2022-12-29T09:30:08;99029.34;;;12.78;83.74
43119;BME280;28729;49.838;8.650;2022-12-29T09:34:10;99044.00;;;12.79;83.75
43119;BME280;28729;49.838;8.650;2022-12-29T09:38:12;99039.81;;;12.82;83.79
43119;BME280;28729;49.838;8.650;2022-12-29T09:46:26;99054.91;;;13.15;82.60
43119;BME280;28729;49.838;8.650;2022-12-29T09:50:32;99052.06;;;13.30;81.70
43119;BME280;28729;49.838;8.650;2022-12-29T09:59:15;99069.50;;;13.70;79.95
43119;BME280;28729;49.838;8.650;2022-12-29T10:03:20;99029.94;;;13.99;78.70
43119;BME280;28729;49.838;8.650;2022-12-29T10:07:30;99045.94;;;14.07;76.57
43119;BME280;28729;49.838;8.650;2022-12-29T10:16:11;99042.31;;;14.06;76.22
43119;BME280;28729;49.838;8.650;2022-12-29T10:24:51;99061.50;;;13.98;76.17
43119;BME280;28729;49.838;8.650;2022-12-29T10:29:02;99060.19;;;13.90;77.25
43119;BME280;28729;49.838;8.650;2022-12-29T10:33:11;99072.34;;;13.94;77.08
43119;BME280;28729;49.838;8.650;2022-12-29T10:41:28;99101.28;;;13.78;79.36
43119;BME280;28729;49.838;8.650;2022-12-29T10:45:34;99120.50;;;13.59;82.86
43119;BME280;28729;49.838;8.650;2022-12-29T10:49:40;99121.94;;;12.91;94.03
43119;BME280;28729;49.838;8.650;2022-12-29T10:53:57;99111.03;;;12.35;100.00
43119;BME280;28729;49.838;8.650;2022-12-29T10:58:03;99110.50;;;12.02;100.00
43119;BME280;28729;49.838;8.650;2022-12-29T11:06:18;99116.75;;;11.52;100.00
43119;BME280;28729;49.838;8.650;2022-12-29T11:10:38;99121.72;;;11.39;100.00
43119;BME280;28729;49.838;8.650;2022-12-29T11:14:41;99121.94;;;11.28;100.00
43119;BME280;28729;49.838;8.650;2022-12-29T11:18:46;99127.16;;;11.24;100.00
43119;BME280;28729;49.838;8.650;2022-12-29T11:22:48;99137.38;;;11.29;100.00
43119;BME280;28729;49.838;8.650;2022-12-29T11:26:55;99136.59;;;11.38;100.00
43119;BME280;28729;49.838;8.650;2022-12-29T11:31:10;99146.53;;;11.45;100.00
43119;BME280;28729;49.838;8.650;2022-12-29T11:35:33;99150.41;;;11.49;100.00
43119;BME280;28729;49.838;8.650;2022-12-29T11:40:03;99146.28;;;11.56;100.00
43119;BME280;28729;49.838;8.650;2022-12-29T11:44:11;99144.63;;;11.66;100.00
43119;BME280;28729;49.838;8.650;2022-12-29T11:48:19;99140.81;;;11.82;100.00
43119;BME280;28729;49.838;8.650;2022-12-29T11:52:26;99134.50;;;11.97;100.00
43119;BME280;28729;49.838;8.650;2022-12-29T11:56:42;99121.53;;;12.02;100.00
43119;BME280;28729;49.838;8.650;2022-12-29T12:00:45;99122.34;;;12.03;100.00
43119;BME280;28729;49.838;8.650;2022-12-29T12:04:56;99126.50;;;11.95;100.00
43119;BME280;28729;49.838;8.650;2022-12-29T12:09:04;99114.63;;;11.95;100.00
43119;BME280;28729;49.838;8.650;2022-12-29T12:13:17;99119.31;;;12.04;100.00
43119;BME280;28729;49.838;8.650;2022-12-29T12:17:29;99119.88;;;12.12;100.00
43119;BME280;28729;49.838;8.650;2022-12-29T12:21:42;99121.25;;;12.09;100.00
43119;BME280;28729;49.838;8.650;2022-12-29T12:25:59;99120.69;;;12.27;100.00
43119;BME280;28729;49.838;8.650;2022-12-29T12:30:19;99116.25;;;12.47;100.00
43119;BME280;28729;49.838;8.650;2022-12-29T12:34:30;99115.38;;;12.57;100.00
43119;BME280;28729;49.838;8.650;2022-12-29T12:47:49;99125.06;;;12.64;99.70
43119;BME280;28729;49.838;8.650;2022-12-29T12:56:19;99119.53;;;12.59;99.55
43119;BME280;28729;49.838;8.650;2022-12-29T13:00:23;99111.25;;;12.64;99.55
43119;BME280;28729;49.838;8.650;2022-12-29T13:22:01;99104.50;;;12.91;97.09
43119;BME280;28729;49.838;8.650;2022-12-29T13:30:34;99110.00;;;12.96;94.33
43119;BME280;28729;49.838;8.650;2022-12-29T13:34:49;99105.88;;;12.93;93.99
43119;BME280;28729;49.838;8.650;2022-12-29T13:39:10;99103.13;;;12.88;93.07
43119;BME280;28729;49.838;8.650;2022-12-29T13:43:22;99098.19;;;12.85;93.49
43119;BME280;28729;49.838;8.650;2022-12-29T13:47:31;99092.09;;;12.83;92.43
43119;BME280;28729;49.838;8.650;2022-12-29T13:51:38;99095.44;;;12.70;90.18
43119;BME280;28729;49.838;8.650;2022-12-29T13:55:50;99096.28;;;12.70;89.17
43119;BME280;28729;49.838;8.650;2022-12-29T14:00:07;99091.00;;;12.79;88.89
43119;BME280;28729;49.838;8.650;2022-12-29T14:04:22;99093.78;;;12.74;87.30
43119;BME280;28729;49.838;8.650;2022-12-29T14:08:24;99102.91;;;12.80;87.30
43119;BME280;28729;49.838;8.650;2022-12-29T14:12:43;99109.25;;;12.85;87.24
43119;BME280;28729;49.838;8.650;2022-12-29T14:16:46;99113.66;;;12.86;86.41
43119;BME280;28729;49.838;8.650;2022-12-29T14:20:57;99109.50;;;12.84;85.06
43119;BME280;28729;49.838;8.650;2022-12-29T14:25:00;99121.66;;;12.88;84.78
43119;BME280;28729;49.838;8.650;2022-12-29T14:33:28;99122.81;;;12.71;83.88
43119;BME280;28729;49.838;8.650;2022-12-29T14:37:31;99124.75;;;12.66;83.22
43119;BME280;28729;49.838;8.650;2022-12-29T14:41:37;99132.22;;;12.65;83.16
43119;BME280;28729;49.838;8.650;2022-12-29T14:45:41;99138.59;;;12.66;83.52
43119;BME280;28729;49.838;8.650;2022-12-29T14:49:44;99142.72;;;12.63;83.86
43119;BME280;28729;49.838;8.650;2022-12-29T14:53:48;99137.19;;;12.63;84.03
43119;BME280;28729;49.838;8.650;2022-12-29T14:57:57;99138.88;;;12.59;83.71
43119;BME280;28729;49.838;8.650;2022-12-29T15:02:07;99139.19;;;12.52;84.11
43119;BME280;28729;49.838;8.650;2022-12-29T15:06:14;99138.34;;;12.47;84.60
43119;BME280;28729;49.838;8.650;2022-12-29T15:10:20;99141.69;;;12.28;85.14
43119;BME280;28729;49.838;8.650;2022-12-29T15:14:39;99145.56;;;12.12;85.89
43119;BME280;28729;49.838;8.650;2022-12-29T15:18:41;99157.97;;;11.94;87.02
43119;BME280;28729;49.838;8.650;2022-12-29T15:22:45;99153.22;;;11.79;88.28
43119;BME280;28729;49.838;8.650;2022-12-29T15:26:51;99162.59;;;11.68;89.41
43119;BME280;28729;49.838;8.650;2022-12-29T15:31:04;99162.56;;;11.53;90.70
43119;BME280;28729;49.838;8.650;2022-12-29T15:35:22;99172.44;;;11.33;91.80
43119;BME280;28729;49.838;8.650;2022-12-29T15:39:29;99174.59;;;11.16;93.37
43119;BME280;28729;49.838;8.650;2022-12-29T15:47:55;99184.34;;;10.86;96.58
43119;BME280;28729;49.838;8.650;2022-12-29T15:51:58;99197.28;;;10.81;98.90
43119;BME280;28729;49.838;8.650;2022-12-29T15:56:05;99209.41;;;10.80;99.21
43119;BME280;28729;49.838;8.650;2022-12-29T16:00:32;99200.00;;;10.76;100.00
43119;BME280;28729;49.838;8.650;2022-12-29T16:04:35;99193.63;;;10.70;99.94
43119;BME280;28729;49.838;8.650;2022-12-29T16:09:15;99190.53;;;10.61;100.00
43119;BME280;28729;49.838;8.650;2022-12-29T16:17:30;99189.56;;;10.40;100.00
43119;BME280;28729;49.838;8.650;2022-12-29T16:21:34;99209.34;;;10.32;100.00
43119;BME280;28729;49.838;8.650;2022-12-29T16:25:36;99218.88;;;10.24;100.00
43119;BME280;28729;49.838;8.650;2022-12-29T16:29:39;99224.59;;;10.18;100.00
43119;BME280;28729;49.838;8.650;2022-12-29T16:33:46;99222.38;;;10.20;100.00
43119;BME280;28729;49.838;8.650;2022-12-29T16:38:12;99237.03;;;10.25;100.00
43119;BME280;28729;49.838;8.650;2022-12-29T16:42:50;99228.63;;;10.32;100.00
43119;BME280;28729;49.838;8.650;2022-12-29T16:47:04;99243.50;;;10.36;100.00
43119;BME280;28729;49.838;8.650;2022-12-29T16:51:16;99242.69;;;10.41;100.00
43119;BME280;28729;49.838;8.650;2022-12-29T16:55:19;99232.25;;;10.43;100.00
43119;BME280;28729;49.838;8.650;2022-12-29T16:59:39;99227.56;;;10.43;100.00
43119;BME280;28729;49.838;8.650;2022-12-29T17:03:58;99231.97;;;10.39;100.00
43119;BME280;28729;49.838;8.650;2022-12-29T17:08:02;99235.19;;;10.31;100.00
43119;BME280;28729;49.838;8.650;2022-12-29T17:12:05;99224.75;;;10.33;100.00
43119;BME280;28729;49.838;8.650;2022-12-29T17:16:12;99242.38;;;10.32;100.00
43119;BME280;28729;49.838;8.650;2022-12-29T17:20:15;99239.06;;;10.30;99.96
43119;BME280;28729;49.838;8.650;2022-12-29T17:24:18;99251.19;;;10.34;99.24
43119;BME280;28729;49.838;8.650;2022-12-29T17:28:23;99252.88;;;10.35;99.25
43119;BME280;28729;49.838;8.650;2022-12-29T17:32:25;99258.84;;;10.27;99.62
43119;BME280;28729;49.838;8.650;2022-12-29T17:36:27;99249.78;;;10.32;99.69
43119;BME280;28729;49.838;8.650;2022-12-29T17:40:31;99245.97;;;10.33;99.78
43119;BME280;28729;49.838;8.650;2022-12-29T17:44:33;99242.88;;;10.29;100.00
43119;BME280;28729;49.838;8.650;2022-12-29T17:48:36;99243.16;;;10.27;100.00
43119;BME280;28729;49.838;8.650;2022-12-29T17:52:37;99239.56;;;10.27;100.00
43119;BME280;28729;49.838;8.650;2022-12-29T17:56:39;99236.88;;;10.32;99.87
43119;BME280;28729;49.838;8.650;2022-12-29T18:00:41;99238.22;;;10.30;99.82
43119;BME280;28729;49.838;8.650;2022-12-29T18:04:43;99244.63;;;10.35;99.45
43119;BME280;28729;49.838;8.650;2022-12-29T18:08:45;99247.38;;;10.35;99.26
43119;BME280;28729;49.838;8.650;2022-12-29T18:12:49;99239.94;;;10.36;99.67
43119;BME280;28729;49.838;8.650;2022-12-29T18:16:51;99246.22;;;10.31;100.00
43119;BME280;28729;49.838;8.650;2022-12-29T18:20:55;99250.66;;;10.32;100.00
43119;BME280;28729;49.838;8.650;2022-12-29T18:24:59;99262.78;;;10.36;100.00
43119;BME280;28729;49.838;8.650;2022-12-29T18:29:02;99263.88;;;10.35;100.00
43119;BME280;28729;49.838;8.650;2022-12-29T18:33:04;99259.41;;;10.29;100.00
43119;BME280;28729;49.838;8.650;2022-12-29T18:37:06;99252.53;;;10.26;100.00
43119;BME280;28729;49.838;8.650;2022-12-29T18:41:25;99255.81;;;10.29;100.00
43119;BME280;28729;49.838;8.650;2022-12-29T18:45:31;99251.09;;;10.24;100.00
43119;BME280;28729;49.838;8.650;2022-12-29T18:49:33;99255.44;;;10.20;100.00
43119;BME280;28729;49.838;8.650;2022-12-29T18:53:35;99252.38;;;10.16;100.00
43119;BME280;28729;49.838;8.650;2022-12-29T18:57:38;99251.53;;;10.16;100.00
43119;BME280;28729;49.838;8.650;2022-12-29T19:01:40;99253.69;;;10.09;100.00
43119;BME280;28729;49.838;8.650;2022-12-29T19:05:44;99260.28;;;10.08;100.00
43119;BME280;28729;49.838;8.650;2022-12-29T19:09:46;99278.41;;;10.03;100.00
43119;BME280;28729;49.838;8.650;2022-12-29T19:13:48;99269.56;;;10.01;100.00
43119;BME280;28729;49.838;8.650;2022-12-29T19:17:51;99275.59;;;9.98;100.00
43119;BME280;28729;49.838;8.650;2022-12-29T19:22:13;99275.28;;;9.95;100.00
43119;BME280;28729;49.838;8.650;2022-12-29T19:26:42;99273.34;;;9.95;100.00
43119;BME280;28729;49.838;8.650;2022-12-29T19:30:45;99277.75;;;9.96;100.00
43119;BME280;28729;49.838;8.650;2022-12-29T19:34:53;99289.63;;;9.97;100.00
43119;BME280;28729;49.838;8.650;2022-12-29T19:38:54;99293.78;;;9.99;100.00
43119;BME280;28729;49.838;8.650;2022-12-29T19:42:56;99297.09;;;10.01;100.00
43119;BME280;28729;49.838;8.650;2022-12-29T19:46:58;99296.06;;;10.08;100.00
43119;BME280;28729;49.838;8.650;2022-12-29T19:51:04;99299.69;;;10.13;100.00
43119;BME280;28729;49.838;8.650;2022-12-29T19:55:07;99300.00;;;10.17;100.00
43119;BME280;28729;49.838;8.650;2022-12-29T19:59:09;99305.50;;;10.17;100.00
43119;BME280;28729;49.838;8.650;2022-12-29T20:03:11;99311.66;;;10.24;100.00
43119;BME280;28729;49.838;8.650;2022-12-29T20:07:14;99311.66;;;10.24;100.00
43119;BME280;28729;49.838;8.650;2022-12-29T20:11:18;99303.94;;;10.26;100.00
43119;BME280;28729;49.838;8.650;2022-12-29T20:15:20;99309.25;;;10.27;100.00
43119;BME280;28729;49.838;8.650;2022-12-29T20:19:22;99310.06;;;10.28;100.00
43119;BME280;28729;49.838;8.650;2022-12-29T20:23:24;99313.13;;;10.32;100.00
43119;BME280;28729;49.838;8.650;2022-12-29T20:27:25;99310.66;;;10.30;100.00
43119;BME280;28729;49.838;8.650;2022-12-29T20:31:35;99320.84;;;10.30;100.00
43119;BME280;28729;49.838;8.650;2022-12-29T20:35:38;99328.25;;;10.29;100.00
43119;BME280;28729;49.838;8.650;2022-12-29T20:39:41;99335.44;;;10.30;100.00
43119;BME280;28729;49.838;8.650;2022-12-29T20:43:44;99350.84;;;10.31;100.00
43119;BME280;28729;49.838;8.650;2022-12-29T20:47:45;99343.69;;;10.30;100.00
43119;BME280;28729;49.838;8.650;2022-12-29T20:51:47;99353.78;;;10.24;100.00
43119;BME280;28729;49.838;8.650;2022-12-29T20:56:15;99360.75;;;10.27;100.00
43119;BME280;28729;49.838;8.650;2022-12-29T21:00:17;99359.63;;;10.28;100.00
43119;BME280;28729;49.838;8.650;2022-12-29T21:04:23;99355.13;;;10.22;100.00
43119;BME280;28729;49.838;8.650;2022-12-29T21:08:26;99356.16;;;10.16;100.00
43119;BME280;28729;49.838;8.650;2022-12-29T21:12:30;99353.34;;;10.11;100.00
43119;BME280;28729;49.838;8.650;2022-12-29T21:16:32;99353.88;;;10.08;100.00
43119;BME280;28729;49.838;8.650;2022-12-29T21:20:34;99361.06;;;10.09;100.00
43119;BME280;28729;49.838;8.650;2022-12-29T21:24:36;99362.72;;;10.10;100.00
43119;BME280;28729;49.838;8.650;2022-12-29T21:28:39;99367.69;;;10.13;100.00
43119;BME280;28729;49.838;8.650;2022-12-29T21:32:42;99360.56;;;10.17;100.00
43119;BME280;28729;49.838;8.650;2022-12-29T21:36:43;99371.59;;;10.17;100.00
43119;BME280;28729;49.838;8.650;2022-12-29T21:40:45;99374.03;;;10.13;100.00
43119;BME280;28729;49.838;8.650;2022-12-29T21:44:48;99386.59;;;10.04;100.00
43119;BME280;28729;49.838;8.650;2022-12-29T21:49:08;99397.72;;;9.92;100.00
43119;BME280;28729;49.838;8.650;2022-12-29T21:53:10;99404.75;;;9.83;100.00
43119;BME280;28729;49.838;8.650;2022-12-29T21:57:14;99407.94;;;9.75;100.00
43119;BME280;28729;49.838;8.650;2022-12-29T22:01:36;99414.91;;;9.61;100.00
43119;BME280;28729;49.838;8.650;2022-12-29T22:05:56;99421.09;;;9.51;100.00
43119;BME280;28729;49.838;8.650;2022-12-29T22:10:16;99431.19;;;9.45;100.00
43119;BME280;28729;49.838;8.650;2022-12-29T22:14:37;99444.88;;;9.40;100.00
43119;BME280;28729;49.838;8.650;2022-12-29T22:18:38;99454.69;;;9.36;100.00
43119;BME280;28729;49.838;8.650;2022-12-29T22:22:40;99458.22;;;9.31;100.00
43119;BME280;28729;49.838;8.650;2022-12-29T22:26:42;99467.53;;;9.30;100.00
43119;BME280;28729;49.838;8.650;2022-12-29T22:30:44;99474.09;;;9.29;100.00
43119;BME280;28729;49.838;8.650;2022-12-29T22:34:46;99475.53;;;9.32;100.00
43119;BME280;28729;49.838;8.650;2022-12-29T22:38:49;99464.34;;;9.22;100.00
43119;BME280;28729;49.838;8.650;2022-12-29T22:42:50;99478.25;;;9.15;100.00
43119;BME280;28729;49.838;8.650;2022-12-29T22:46:52;99484.75;;;9.09;100.00
43119;BME280;28729;49.838;8.650;2022-12-29T22:50:54;99489.22;;;8.98;100.00
43119;BME280;28729;49.838;8.650;2022-12-29T22:54:55;99488.47;;;8.86;100.00
43119;BME280;28729;49.838;8.650;2022-12-29T22:59:05;99492.63;;;8.72;100.00
43119;BME280;28729;49.838;8.650;2022-12-29T23:03:06;99490.41;;;8.57;100.00
43119;BME280;28729;49.838;8.650;2022-12-29T23:07:08;99500.00;;;8.42;100.00
43119;BME280;28729;49.838;8.650;2022-12-29T23:11:11;99501.06;;;8.30;100.00
43119;BME280;28729;49.838;8.650;2022-12-29T23:15:13;99508.84;;;8.21;100.00
43119;BME280;28729;49.838;8.650;2022-12-29T23:19:15;99505.66;;;8.12;100.00
43119;BME280;28729;49.838;8.650;2022-12-29T23:23:17;99508.75;;;8.04;100.00
43119;BME280;28729;49.838;8.650;2022-12-29T23:27:46;99515.69;;;7.95;100.00